createdAt,value
2018-09-24T00:00:12.113Z,101312.11
2018-09-24T00:02:40.995Z,101314.94
2018-09-24T00:05:10.092Z,101316.20
2018-09-24T00:07:39.122Z,101306.86
2018-09-24T00:10:08.143Z,101309.58
2018-09-24T00:12:37.326Z,101313.88
2018-09-24T00:15:06.345Z,101316.93
2018-09-24T00:17:35.486Z,101314.38
2018-09-24T00:20:04.549Z,101312.84
2018-09-24T00:22:33.656Z,101301.87
2018-09-24T00:25:02.930Z,101300.33
2018-09-24T00:27:32.111Z,101305.59
2018-09-24T00:30:01.200Z,101294.03
2018-09-24T00:32:30.269Z,101290.70
2018-09-24T00:34:59.465Z,101287.41
2018-09-24T00:37:28.610Z,101280.20
2018-09-24T00:39:57.650Z,101279.79
2018-09-24T00:42:27.329Z,101275.13
2018-09-24T00:44:56.396Z,101271.86
2018-09-24T00:47:25.534Z,101267.70
2018-09-24T00:49:54.683Z,101266.09
2018-09-24T00:52:23.750Z,101262.59
2018-09-24T00:54:52.805Z,101253.17
2018-09-24T00:57:21.883Z,101253.55
2018-09-24T00:59:50.948Z,101246.62
2018-09-24T01:02:20.095Z,101242.73
2018-09-24T01:04:49.148Z,101247.98
2018-09-24T01:07:18.282Z,101241.29
2018-09-24T01:09:47.744Z,101244.24
2018-09-24T01:12:16.881Z,101237.00
2018-09-24T01:14:45.925Z,101240.36
2018-09-24T01:17:15.171Z,101229.03
2018-09-24T01:19:44.614Z,101225.02
2018-09-24T01:22:13.729Z,101219.25
2018-09-24T01:24:42.865Z,101213.34
2018-09-24T01:27:11.946Z,101215.19
2018-09-24T01:29:41.092Z,101209.97
2018-09-24T01:32:10.293Z,101201.77
2018-09-24T01:34:39.339Z,101195.97
2018-09-24T01:37:08.486Z,101192.26
2018-09-24T01:39:37.596Z,101189.62
2018-09-24T01:42:06.666Z,101190.16
2018-09-24T01:44:36.147Z,101191.16
2018-09-24T01:47:05.167Z,101183.20
2018-09-24T01:49:34.655Z,101180.34
2018-09-24T01:52:03.998Z,101180.92
2018-09-24T01:54:33.034Z,101169.05
2018-09-24T01:57:02.309Z,101171.27
2018-09-24T01:59:31.423Z,101175.08
2018-09-24T02:02:00.525Z,101157.34
2018-09-24T02:04:29.766Z,101155.69
2018-09-24T02:07:02.054Z,101150.52
2018-09-24T02:09:31.575Z,101161.66
2018-09-24T02:12:06.198Z,101158.45
2018-09-24T02:14:35.637Z,101158.24
2018-09-24T02:17:04.774Z,101160.84
2018-09-24T02:19:34.226Z,101152.52
2018-09-24T02:22:03.362Z,101146.72
2018-09-24T02:24:32.706Z,101147.61
2018-09-24T02:27:01.847Z,101143.86
2018-09-24T02:29:30.982Z,101146.70
2018-09-24T02:32:00.108Z,101144.70
2018-09-24T02:34:29.416Z,101141.47
2018-09-24T02:36:58.538Z,101134.32
2018-09-24T02:39:27.601Z,101143.16
2018-09-24T02:41:57.255Z,101144.86
2018-09-24T02:44:27.877Z,101139.89
2018-09-24T02:46:57.760Z,101129.53
2018-09-24T02:49:26.752Z,101123.27
2018-09-24T02:51:57.232Z,101121.75
2018-09-24T02:54:26.375Z,101126.23
2018-09-24T02:56:55.900Z,101125.34
2018-09-24T02:59:24.883Z,101119.89
2018-09-24T03:01:53.940Z,101116.00
2018-09-24T03:04:23.413Z,101112.98
2018-09-24T03:06:52.837Z,101114.21
2018-09-24T03:09:22.066Z,101108.84
2018-09-24T03:11:51.206Z,101106.77
2018-09-24T03:14:27.829Z,101103.50
2018-09-24T03:16:57.302Z,101106.83
2018-09-24T03:19:26.375Z,101104.30
2018-09-24T03:21:55.518Z,101108.47
2018-09-24T03:24:25.135Z,101108.09
2018-09-24T03:26:54.482Z,101111.16
2018-09-24T03:29:24.753Z,101109.85
2018-09-24T03:31:54.144Z,101110.26
2018-09-24T03:34:23.193Z,101106.88
2018-09-24T03:36:52.730Z,101105.47
2018-09-24T03:39:21.921Z,101108.17
2018-09-24T03:41:51.264Z,101114.30
2018-09-24T03:44:20.404Z,101111.29
2018-09-24T03:46:49.387Z,101112.23
2018-09-24T03:49:18.555Z,101104.36
2018-09-24T03:51:48.142Z,101111.75
2018-09-24T03:54:17.397Z,101098.55
2018-09-24T03:56:46.623Z,101093.44
2018-09-24T03:59:15.630Z,101088.73
2018-09-24T04:01:44.765Z,101081.35
2018-09-24T04:04:18.732Z,101082.78
2018-09-24T04:06:52.686Z,101082.13
2018-09-24T04:09:27.238Z,101079.82
2018-09-24T04:12:01.608Z,101074.06
2018-09-24T04:14:35.530Z,101076.23
2018-09-24T04:17:09.470Z,101079.51
2018-09-24T04:19:44.604Z,101084.06
2018-09-24T04:22:18.588Z,101088.66
2018-09-24T04:24:52.521Z,101088.62
2018-09-24T04:27:26.941Z,101069.07
2018-09-24T04:30:00.916Z,101084.75
2018-09-24T04:32:34.929Z,101079.88
2018-09-24T04:35:08.894Z,101067.11
2018-09-24T04:37:42.986Z,101073.12
2018-09-24T04:40:17.099Z,101073.86
2018-09-24T04:42:51.191Z,101069.95
2018-09-24T04:45:25.224Z,101065.23
2018-09-24T04:47:59.662Z,101067.70
2018-09-24T04:50:33.680Z,101061.53
2018-09-24T04:53:07.667Z,101067.14
2018-09-24T04:55:41.861Z,101064.41
2018-09-24T04:58:15.794Z,101060.59
2018-09-24T05:00:50.233Z,101059.03
2018-09-24T05:03:24.440Z,101054.28
2018-09-24T05:05:59.970Z,101051.98
2018-09-24T05:08:33.947Z,101055.83
2018-09-24T05:11:08.538Z,101048.90
2018-09-24T05:13:42.767Z,101052.64
2018-09-24T05:16:16.871Z,101051.66
2018-09-24T05:18:50.870Z,101049.38
2018-09-24T05:21:24.945Z,101040.59
2018-09-24T05:23:59.303Z,101048.38
2018-09-24T05:26:33.354Z,101032.61
2018-09-24T05:29:07.582Z,101028.45
2018-09-24T05:31:41.657Z,101022.63
2018-09-24T05:34:15.648Z,101030.92
2018-09-24T05:36:49.629Z,101020.56
2018-09-24T05:39:23.807Z,101022.28
2018-09-24T05:41:57.760Z,101012.43
2018-09-24T05:44:31.681Z,101012.20
2018-09-24T05:47:05.865Z,101009.25
2018-09-24T05:49:40.307Z,101005.17
2018-09-24T05:52:14.241Z,101010.70
2018-09-24T05:54:48.475Z,101007.41
2018-09-24T05:57:22.525Z,101006.14
2018-09-24T05:59:56.510Z,101004.53
2018-09-24T06:02:30.643Z,101004.80
2018-09-24T06:05:04.628Z,101002.64
2018-09-24T06:07:38.579Z,101004.09
2018-09-24T06:10:13.115Z,101011.36
2018-09-24T06:12:47.112Z,101002.00
2018-09-24T06:15:21.528Z,100997.23
2018-09-24T06:17:55.615Z,100994.47
2018-09-24T06:20:29.951Z,100988.01
2018-09-24T06:23:04.714Z,100988.16
2018-09-24T06:25:38.670Z,100989.02
2018-09-24T06:28:12.859Z,100981.93
2018-09-24T06:30:47.023Z,100979.83
2018-09-24T06:33:21.440Z,100984.64
2018-09-24T06:35:55.748Z,100987.36
2018-09-24T06:38:30.058Z,100985.90
2018-09-24T06:41:04.166Z,100978.69
2018-09-24T06:43:38.323Z,100969.13
2018-09-24T06:46:12.598Z,100974.55
2018-09-24T06:48:47.596Z,100967.42
2018-09-24T06:51:21.566Z,100963.13
2018-09-24T06:53:55.667Z,100967.92
2018-09-24T06:56:29.706Z,100964.30
2018-09-24T06:59:03.850Z,100971.44
2018-09-24T07:01:37.842Z,100969.78
2018-09-24T07:04:11.964Z,100967.84
2018-09-24T07:06:45.973Z,100963.25
2018-09-24T07:09:20.052Z,100938.09
2018-09-24T07:11:54.083Z,100969.19
2018-09-24T07:14:28.429Z,100957.10
2018-09-24T07:17:02.755Z,100958.64
2018-09-24T07:19:37.140Z,100957.52
2018-09-24T07:22:11.208Z,100950.97
2018-09-24T07:24:45.555Z,100953.05
2018-09-24T07:27:19.578Z,100944.96
2018-09-24T07:29:53.658Z,100939.96
2018-09-24T07:32:27.967Z,100946.59
2018-09-24T07:35:02.092Z,100939.44
2018-09-24T07:37:36.799Z,100940.73
2018-09-24T07:40:11.250Z,100925.72
2018-09-24T07:42:45.195Z,100931.97
2018-09-24T07:45:19.105Z,100924.59
2018-09-24T07:47:53.421Z,100919.56
2018-09-24T07:50:27.584Z,100921.05
2018-09-24T07:53:01.924Z,100920.19
2018-09-24T07:55:36.188Z,100911.98
2018-09-24T07:58:10.691Z,100920.17
2018-09-24T08:00:45.203Z,100914.03
2018-09-24T08:03:19.400Z,100910.84
2018-09-24T08:05:53.515Z,100906.11
2018-09-24T08:08:27.623Z,100908.51
2018-09-24T08:11:01.852Z,100901.27
2018-09-24T08:13:36.283Z,100895.39
2018-09-24T08:16:10.494Z,100894.33
2018-09-24T08:18:44.531Z,100894.20
2018-09-24T08:21:18.899Z,100885.79
2018-09-24T08:23:53.354Z,100885.14
2018-09-24T08:26:27.293Z,100878.18
2018-09-24T08:29:01.489Z,100878.94
2018-09-24T08:31:35.563Z,100875.44
2018-09-24T08:34:09.526Z,100866.94
2018-09-24T08:36:43.894Z,100865.81
2018-09-24T08:39:17.956Z,100859.55
2018-09-24T08:41:51.991Z,100856.78
2018-09-24T08:44:26.034Z,100846.84
2018-09-24T08:47:00.254Z,100849.83
2018-09-24T08:49:34.577Z,100841.02
2018-09-24T08:52:08.914Z,100843.59
2018-09-24T08:54:43.272Z,100836.45
2018-09-24T08:57:17.302Z,100840.13
2018-09-24T08:59:51.444Z,100841.42
2018-09-24T09:02:25.564Z,100833.11
2018-09-24T09:05:00.215Z,100833.22
2018-09-24T09:07:34.531Z,100827.91
2018-09-24T09:10:08.638Z,100825.20
2018-09-24T09:12:42.722Z,100818.90
2018-09-24T09:15:16.873Z,100817.73
2018-09-24T09:17:51.094Z,100808.62
2018-09-24T09:20:25.403Z,100806.78
2018-09-24T09:22:59.696Z,100800.73
2018-09-24T09:25:33.868Z,100797.76
2018-09-24T09:28:07.942Z,100790.80
2018-09-24T09:30:42.066Z,100794.81
2018-09-24T09:33:16.282Z,100782.95
2018-09-24T09:35:50.294Z,100778.00
2018-09-24T09:38:24.312Z,100777.02
2018-09-24T09:40:58.717Z,100765.86
2018-09-24T09:43:33.094Z,100763.49
2018-09-24T09:46:07.063Z,100765.66
2018-09-24T09:48:41.347Z,100759.99
2018-09-24T09:51:15.694Z,100751.61
2018-09-24T09:53:49.842Z,100746.65
2018-09-24T09:56:23.881Z,100742.95
2018-09-24T09:58:57.891Z,100739.70
2018-09-24T10:01:32.021Z,100737.09
2018-09-24T10:04:06.151Z,100733.14
2018-09-24T10:06:40.121Z,100731.34
2018-09-24T10:09:14.427Z,100723.84
2018-09-24T10:11:48.896Z,100717.38
2018-09-24T10:14:22.921Z,100716.50
2018-09-24T10:16:57.038Z,100710.80
2018-09-24T10:19:31.113Z,100709.42
2018-09-24T10:22:05.308Z,100705.48
2018-09-24T10:24:39.918Z,100708.97
2018-09-24T10:27:14.420Z,100705.89
2018-09-24T10:29:48.426Z,100705.48
2018-09-24T10:32:22.674Z,100696.42
2018-09-24T10:34:56.667Z,100691.13
2018-09-24T10:37:30.731Z,100695.06
2018-09-24T10:40:04.855Z,100685.20
2018-09-24T10:42:38.970Z,100676.19
2018-09-24T10:45:13.250Z,100675.25
2018-09-24T10:47:47.233Z,100675.70
2018-09-24T10:50:21.407Z,100669.08
2018-09-24T10:52:55.470Z,100662.84
2018-09-24T10:55:29.515Z,100663.84
2018-09-24T10:58:03.718Z,100654.45
2018-09-24T11:00:37.894Z,100654.41
2018-09-24T11:03:11.891Z,100647.89
2018-09-24T11:05:46.286Z,100642.70
2018-09-24T11:08:20.350Z,100642.75
2018-09-24T11:10:54.347Z,100633.44
2018-09-24T11:13:28.796Z,100623.74
2018-09-24T11:16:03.180Z,100621.67
2018-09-24T11:18:37.186Z,100623.73
2018-09-24T11:21:11.224Z,100624.66
2018-09-24T11:23:45.213Z,100619.22
2018-09-24T11:28:53.740Z,100603.45
2018-09-24T11:31:27.790Z,100599.69
2018-09-24T11:34:01.898Z,100600.63
2018-09-24T11:36:35.920Z,100595.03
2018-09-24T11:39:12.062Z,100592.61
2018-09-24T11:41:46.175Z,100588.11
2018-09-24T11:44:20.372Z,100586.46
2018-09-24T11:46:54.398Z,100584.56
2018-09-24T11:49:28.403Z,100578.79
2018-09-24T11:52:02.724Z,100583.57
2018-09-24T11:54:36.950Z,100575.02
2018-09-24T11:57:11.215Z,100575.13
2018-09-24T11:59:45.115Z,100566.77
2018-09-24T12:02:19.176Z,100566.24
2018-09-24T12:04:53.588Z,100561.38
2018-09-24T12:07:28.128Z,100558.11
2018-09-24T12:10:02.617Z,100558.65
2018-09-24T12:12:36.771Z,100549.88
2018-09-24T12:15:11.391Z,100544.88
2018-09-24T12:17:45.302Z,100545.35
2018-09-24T12:20:19.382Z,100552.13
2018-09-24T12:22:53.536Z,100550.37
2018-09-24T12:25:27.460Z,100553.08
2018-09-24T12:28:01.469Z,100542.27
2018-09-24T12:30:35.575Z,100541.86
2018-09-24T12:33:09.879Z,100530.64
2018-09-24T12:35:44.330Z,100532.13
2018-09-24T12:38:18.619Z,100531.05
2018-09-24T12:40:52.535Z,100531.56
2018-09-24T12:43:26.482Z,100527.63
2018-09-24T12:46:00.571Z,100535.42
2018-09-24T12:48:34.821Z,100533.89
2018-09-24T12:51:08.955Z,100533.38
2018-09-24T12:53:42.984Z,100529.14
2018-09-24T12:56:16.949Z,100520.41
2018-09-24T12:58:50.903Z,100523.29
2018-09-24T13:01:25.272Z,100523.28
2018-09-24T13:03:59.412Z,100528.15
2018-09-24T13:06:33.677Z,100527.11
2018-09-24T13:09:07.778Z,100526.35
2018-09-24T13:11:41.757Z,100519.77
2018-09-24T13:14:15.987Z,100511.47
2018-09-24T13:16:50.016Z,100507.64
2018-09-24T13:19:24.640Z,100508.60
2018-09-24T13:21:59.049Z,100508.24
2018-09-24T13:24:33.004Z,100508.64
2018-09-24T13:27:07.341Z,100513.48
2018-09-24T13:29:41.336Z,100516.75
2018-09-24T13:32:15.492Z,100505.27
2018-09-24T13:34:49.614Z,100501.41
2018-09-24T13:37:23.770Z,100493.19
2018-09-24T13:39:57.696Z,100494.41
2018-09-24T13:42:31.697Z,100494.98
2018-09-24T13:45:06.123Z,100505.23
2018-09-24T13:47:40.232Z,100503.72
2018-09-24T13:50:14.416Z,100500.02
2018-09-24T13:52:48.340Z,100496.09
2018-09-24T13:55:22.504Z,100499.33
2018-09-24T13:57:56.726Z,100497.20
2018-09-24T14:00:30.790Z,100490.95
2018-09-24T14:03:04.846Z,100495.22
2018-09-24T14:05:39.119Z,100497.47
2018-09-24T14:08:13.118Z,100494.62
2018-09-24T14:10:47.058Z,100498.42
2018-09-24T14:13:21.071Z,100506.05
2018-09-24T14:15:55.178Z,100498.23
2018-09-24T14:18:29.657Z,100495.30
2018-09-24T14:21:03.742Z,100495.30
2018-09-24T14:23:38.148Z,100495.21
2018-09-24T14:26:12.462Z,100493.38
2018-09-24T14:28:46.692Z,100487.87
2018-09-24T14:31:21.229Z,100498.08
2018-09-24T14:33:55.473Z,100500.08
2018-09-24T14:36:29.586Z,100496.56
2018-09-24T14:39:03.515Z,100499.92
2018-09-24T14:41:37.618Z,100506.81
2018-09-24T14:44:11.850Z,100497.55
2018-09-24T14:46:45.870Z,100501.02
2018-09-24T14:49:19.836Z,100498.51
2018-09-24T14:51:53.998Z,100496.33
2018-09-24T14:54:28.030Z,100495.68
2018-09-24T14:57:01.923Z,100506.52
2018-09-24T14:59:35.842Z,100505.37
2018-09-24T15:02:09.885Z,100506.92
2018-09-24T15:04:43.906Z,100523.12
2018-09-24T15:07:18.045Z,100520.38
2018-09-24T15:09:52.030Z,100516.97
2018-09-24T15:12:26.278Z,100529.27
2018-09-24T15:15:00.390Z,100526.80
2018-09-24T15:17:34.505Z,100525.73
2018-09-24T15:20:08.539Z,100518.69
2018-09-24T15:22:42.638Z,100525.50
2018-09-24T15:25:16.770Z,100520.48
2018-09-24T15:27:50.809Z,100525.88
2018-09-24T15:30:24.834Z,100531.61
2018-09-24T15:32:58.918Z,100540.54
2018-09-24T15:35:33.100Z,100540.39
2018-09-24T15:38:07.146Z,100543.95
2018-09-24T15:40:41.121Z,100544.14
2018-09-24T15:43:15.145Z,100555.55
2018-09-24T15:45:49.123Z,100569.22
2018-09-24T15:48:23.275Z,100619.73
2018-09-24T15:50:57.213Z,100584.41
2018-09-24T15:53:31.514Z,100597.89
2018-09-24T15:56:05.496Z,100596.56
2018-09-24T15:58:39.674Z,100593.70
2018-09-24T16:01:13.938Z,100598.69
2018-09-24T16:03:47.943Z,100602.70
2018-09-24T16:06:22.041Z,100600.47
2018-09-24T16:08:56.228Z,100604.88
2018-09-24T16:11:30.093Z,100612.08
2018-09-24T16:14:04.200Z,100624.13
2018-09-24T16:16:38.170Z,100627.30
2018-09-24T16:19:12.790Z,100634.75
2018-09-24T16:21:46.932Z,100640.31
2018-09-24T16:24:21.016Z,100640.60
2018-09-24T16:26:55.020Z,100646.73
2018-09-24T16:29:29.270Z,100643.38
2018-09-24T16:32:03.520Z,100654.33
2018-09-24T16:34:37.420Z,100656.48
2018-09-24T16:37:11.719Z,100678.34
2018-09-24T16:39:45.891Z,100721.37
2018-09-24T16:42:19.911Z,100712.59
2018-09-24T16:44:54.058Z,100706.41
2018-09-24T16:47:28.303Z,100731.61
2018-09-24T16:50:02.583Z,100716.83
2018-09-24T16:52:36.718Z,100746.08
2018-09-24T16:55:10.803Z,100779.95
2018-09-24T16:57:45.035Z,100772.56
2018-09-24T17:00:19.252Z,100764.27
2018-09-24T17:02:53.435Z,100777.70
2018-09-24T17:05:27.362Z,100795.33
2018-09-24T17:08:01.681Z,100806.02
2018-09-24T17:10:35.772Z,100798.20
2018-09-24T17:13:09.900Z,100799.20
2018-09-24T17:15:44.147Z,100799.36
2018-09-24T17:18:18.260Z,100818.04
2018-09-24T17:20:52.860Z,100829.13
2018-09-24T17:23:27.222Z,100835.59
2018-09-24T17:26:01.393Z,100837.50
2018-09-24T17:28:35.334Z,100829.11
2018-09-24T17:31:09.683Z,100838.58
2018-09-24T17:33:43.887Z,100835.62
2018-09-24T17:36:17.894Z,100853.91
2018-09-24T17:38:52.194Z,100835.90
2018-09-24T17:41:26.379Z,100834.34
2018-09-24T17:44:00.554Z,100844.06
2018-09-24T17:46:34.638Z,100845.45
2018-09-24T17:49:08.626Z,100851.41
2018-09-24T17:51:42.937Z,100844.00
2018-09-24T17:54:16.972Z,100875.03
2018-09-24T17:56:50.980Z,100860.30
2018-09-24T17:59:25.161Z,100866.47
2018-09-24T18:01:59.302Z,100869.36
2018-09-24T18:04:33.444Z,100872.47
2018-09-24T18:07:07.651Z,100885.06
2018-09-24T18:09:41.788Z,100881.77
2018-09-24T18:12:15.737Z,100898.06
2018-09-24T18:14:49.884Z,100884.87
2018-09-24T18:17:23.829Z,100888.09
2018-09-24T18:19:58.173Z,100892.25
2018-09-24T18:22:32.700Z,100895.45
2018-09-24T18:25:06.713Z,100915.76
2018-09-24T18:27:40.808Z,100920.98
2018-09-24T18:30:14.943Z,100940.20
2018-09-24T18:32:56.270Z,100921.91
2018-09-24T18:35:30.254Z,100940.17
2018-09-24T18:38:04.647Z,100941.16
2018-09-24T18:40:38.790Z,100949.65
2018-09-24T18:43:12.872Z,100949.39
2018-09-24T18:45:46.896Z,100959.58
2018-09-24T18:48:20.921Z,100961.46
2018-09-24T18:50:55.138Z,100978.29
2018-09-24T18:53:29.248Z,100995.37
2018-09-24T18:56:03.390Z,101011.70
2018-09-24T18:58:37.260Z,101022.89
2018-09-24T19:01:11.537Z,101023.23
2018-09-24T19:03:45.994Z,101037.61
2018-09-24T19:06:20.087Z,101050.00
2018-09-24T19:08:54.186Z,101056.54
2018-09-24T19:11:28.290Z,101050.30
2018-09-24T19:14:02.467Z,101071.87
2018-09-24T19:16:36.627Z,101076.63
2018-09-24T19:19:10.721Z,101095.08
2018-09-24T19:21:44.752Z,101100.88
2018-09-24T19:24:18.738Z,101122.79
2018-09-24T19:26:53.364Z,101145.58
2018-09-24T19:29:27.334Z,101151.50
2018-09-24T19:32:01.610Z,101164.74
2018-09-24T19:34:35.696Z,101175.02
2018-09-24T19:37:09.745Z,101187.18
2018-09-24T19:39:43.629Z,101196.41
2018-09-24T19:42:17.733Z,101216.88
2018-09-24T19:44:51.749Z,101207.18
2018-09-24T19:47:25.664Z,101222.17
2018-09-24T19:50:00.044Z,101225.42
2018-09-24T19:52:33.947Z,101249.29
2018-09-24T19:55:08.404Z,101262.33
2018-09-24T19:57:42.512Z,101272.36
2018-09-24T20:00:16.824Z,101256.56
2018-09-24T20:02:51.258Z,101285.87
2018-09-24T20:05:25.497Z,101282.89
2018-09-24T20:07:59.674Z,101284.06
2018-09-24T20:10:33.773Z,101310.97
2018-09-24T20:13:08.072Z,101331.36
2018-09-24T20:15:42.348Z,101342.94
2018-09-24T20:18:16.445Z,101342.08
2018-09-24T20:20:50.554Z,101359.28
2018-09-24T20:23:25.005Z,101353.52
2018-09-24T20:25:58.864Z,101361.19
2018-09-24T20:28:33.176Z,101361.96
2018-09-24T20:31:07.280Z,101381.84
2018-09-24T20:33:41.363Z,101377.77
2018-09-24T20:36:15.437Z,101377.73
2018-09-24T20:38:49.379Z,101391.58
2018-09-24T20:41:23.516Z,101394.35
2018-09-24T20:43:57.528Z,101412.87
2018-09-24T20:46:31.491Z,101408.05
2018-09-24T20:49:05.408Z,101413.50
2018-09-24T20:51:39.608Z,101418.51
2018-09-24T20:54:13.496Z,101426.87
2018-09-24T20:56:48.407Z,101423.23
2018-09-24T20:59:22.513Z,101433.45
2018-09-24T21:01:56.696Z,101432.34
2018-09-24T21:04:30.901Z,101436.40
2018-09-24T21:07:05.244Z,101453.75
2018-09-24T21:09:39.247Z,101437.40
2018-09-24T21:12:13.834Z,101453.30
2018-09-24T21:14:48.518Z,101452.34
2018-09-24T21:17:22.831Z,101472.00
2018-09-24T21:19:57.045Z,101471.67
2018-09-24T21:22:31.307Z,101480.48
2018-09-24T21:25:05.599Z,101472.05
2018-09-24T21:27:39.600Z,101480.47
2018-09-24T21:30:14.126Z,101504.96
2018-09-24T21:32:48.687Z,101506.59
2018-09-24T21:35:22.669Z,101504.94
2018-09-24T21:37:56.627Z,101514.73
2018-09-24T21:40:30.720Z,101511.58
2018-09-24T21:43:04.720Z,101511.20
2018-09-24T21:45:38.672Z,101537.16
2018-09-24T21:48:12.824Z,101526.90
2018-09-24T21:50:47.082Z,101531.58
2018-09-24T21:53:21.031Z,101545.58
2018-09-24T21:55:55.418Z,101541.73
2018-09-24T21:58:29.520Z,101542.14
2018-09-24T22:01:03.462Z,101534.50
2018-09-24T22:03:37.462Z,101550.62
2018-09-24T22:06:11.908Z,101566.05
2018-09-24T22:08:46.141Z,101553.38
2018-09-24T22:11:20.309Z,101558.80
2018-09-24T22:13:54.556Z,101572.27
2018-09-24T22:16:28.767Z,101568.80
2018-09-24T22:19:03.036Z,101586.41
2018-09-24T22:21:37.493Z,101584.21
2018-09-24T22:26:42.681Z,101599.28
2018-09-24T22:29:16.859Z,101592.91
2018-09-24T22:31:50.854Z,101612.56
2018-09-24T22:34:24.836Z,101602.47
2018-09-24T22:36:58.989Z,101609.46
2018-09-24T22:39:33.002Z,101628.77
2018-09-24T22:42:07.089Z,101618.70
2018-09-24T22:44:41.067Z,101622.44
2018-09-24T22:47:15.324Z,101631.41
2018-09-24T22:49:49.436Z,101648.10
2018-09-24T22:52:23.577Z,101657.66
2018-09-24T22:54:57.616Z,101641.83
2018-09-24T22:57:32.210Z,101629.87
2018-09-24T23:00:06.239Z,101662.16
2018-09-24T23:02:40.285Z,101648.56
2018-09-24T23:05:14.184Z,101698.76
2018-09-24T23:07:48.140Z,101681.55
2018-09-24T23:10:22.217Z,101687.55
2018-09-24T23:12:56.211Z,101697.69
2018-09-24T23:15:30.234Z,101693.63
2018-09-24T23:18:04.373Z,101696.33
2018-09-24T23:20:38.505Z,101711.96
2018-09-24T23:23:12.664Z,101695.92
2018-09-24T23:25:46.888Z,101702.09
2018-09-24T23:28:20.896Z,101712.51
2018-09-24T23:30:54.979Z,101708.55
2018-09-24T23:33:29.370Z,101710.84
2018-09-24T23:36:03.515Z,101703.85
2018-09-24T23:38:37.540Z,101715.48
2018-09-24T23:41:11.886Z,101734.30
2018-09-24T23:43:46.803Z,101725.98
2018-09-24T23:46:21.221Z,101735.05
2018-09-24T23:48:55.327Z,101755.79
2018-09-24T23:51:29.780Z,101754.97
2018-09-24T23:54:03.796Z,101760.44
2018-09-24T23:56:38.228Z,101771.66
2018-09-24T23:59:12.566Z,101763.05
